sensor_id;sensor_type;location;lat;lon;timestamp;P1;durP1;ratioP1;P2;durP2;ratioP2
13866;SDS011;7003;46.982;15.248;2023-02-15T00:00:09;14.73;;;9.13;;
13866;SDS011;7003;46.982;15.248;2023-02-15T00:02:36;10.17;;;6.97;;
13866;SDS011;7003;46.982;15.248;2023-02-15T00:05:04;18.33;;;8.47;;
13866;SDS011;7003;46.982;15.248;2023-02-15T00:07:34;13.93;;;7.27;;
13866;SDS011;7003;46.982;15.248;2023-02-15T00:10:01;10.20;;;7.23;;
13866;SDS011;7003;46.982;15.248;2023-02-15T00:12:31;10.00;;;8.43;;
13866;SDS011;7003;46.982;15.248;2023-02-15T00:14:58;13.50;;;9.23;;
13866;SDS011;7003;46.982;15.248;2023-02-15T00:17:26;10.90;;;9.40;;
13866;SDS011;7003;46.982;15.248;2023-02-15T00:19:53;11.20;;;6.83;;
13866;SDS011;7003;46.982;15.248;2023-02-15T00:22:21;12.43;;;9.03;;
13866;SDS011;7003;46.982;15.248;2023-02-15T00:24:50;10.73;;;7.73;;
13866;SDS011;7003;46.982;15.248;2023-02-15T00:27:19;9.20;;;6.90;;
13866;SDS011;7003;46.982;15.248;2023-02-15T00:29:50;17.83;;;8.07;;
13866;SDS011;7003;46.982;15.248;2023-02-15T00:32:20;16.60;;;8.33;;
13866;SDS011;7003;46.982;15.248;2023-02-15T00:34:47;10.20;;;8.20;;
13866;SDS011;7003;46.982;15.248;2023-02-15T00:37:14;8.03;;;7.10;;
13866;SDS011;7003;46.982;15.248;2023-02-15T00:39:43;11.80;;;7.10;;
13866;SDS011;7003;46.982;15.248;2023-02-15T00:42:10;13.13;;;7.27;;
13866;SDS011;7003;46.982;15.248;2023-02-15T00:44:37;10.13;;;6.87;;
13866;SDS011;7003;46.982;15.248;2023-02-15T00:47:08;13.53;;;9.77;;
13866;SDS011;7003;46.982;15.248;2023-02-15T00:49:37;8.87;;;7.97;;
13866;SDS011;7003;46.982;15.248;2023-02-15T00:52:06;10.37;;;7.37;;
13866;SDS011;7003;46.982;15.248;2023-02-15T00:54:36;9.03;;;7.97;;
13866;SDS011;7003;46.982;15.248;2023-02-15T00:57:04;11.57;;;7.90;;
13866;SDS011;7003;46.982;15.248;2023-02-15T00:59:33;13.30;;;8.53;;
13866;SDS011;7003;46.982;15.248;2023-02-15T01:02:02;10.57;;;8.20;;
13866;SDS011;7003;46.982;15.248;2023-02-15T01:04:31;14.47;;;8.73;;
13866;SDS011;7003;46.982;15.248;2023-02-15T01:07:03;11.67;;;7.57;;
13866;SDS011;7003;46.982;15.248;2023-02-15T01:09:33;8.93;;;6.80;;
13866;SDS011;7003;46.982;15.248;2023-02-15T01:12:08;11.27;;;8.27;;
13866;SDS011;7003;46.982;15.248;2023-02-15T01:14:38;11.30;;;8.03;;
13866;SDS011;7003;46.982;15.248;2023-02-15T01:17:14;16.93;;;9.00;;
13866;SDS011;7003;46.982;15.248;2023-02-15T01:19:47;13.40;;;7.93;;
13866;SDS011;7003;46.982;15.248;2023-02-15T01:22:19;13.17;;;8.50;;
13866;SDS011;7003;46.982;15.248;2023-02-15T01:24:48;11.33;;;7.80;;
13866;SDS011;7003;46.982;15.248;2023-02-15T01:27:25;18.83;;;9.57;;
13866;SDS011;7003;46.982;15.248;2023-02-15T01:29:59;20.73;;;10.23;;
13866;SDS011;7003;46.982;15.248;2023-02-15T01:32:28;21.83;;;9.20;;
13866;SDS011;7003;46.982;15.248;2023-02-15T01:34:57;18.80;;;10.07;;
13866;SDS011;7003;46.982;15.248;2023-02-15T01:37:25;17.73;;;10.97;;
13866;SDS011;7003;46.982;15.248;2023-02-15T01:39:53;14.70;;;8.77;;
13866;SDS011;7003;46.982;15.248;2023-02-15T01:42:21;11.90;;;9.10;;
13866;SDS011;7003;46.982;15.248;2023-02-15T01:44:52;19.50;;;11.10;;
13866;SDS011;7003;46.982;15.248;2023-02-15T01:47:30;15.03;;;9.63;;
13866;SDS011;7003;46.982;15.248;2023-02-15T01:50:06;14.77;;;9.40;;
13866;SDS011;7003;46.982;15.248;2023-02-15T01:52:40;20.67;;;11.07;;
13866;SDS011;7003;46.982;15.248;2023-02-15T01:55:16;13.27;;;9.50;;
13866;SDS011;7003;46.982;15.248;2023-02-15T01:57:45;13.00;;;8.93;;
13866;SDS011;7003;46.982;15.248;2023-02-15T02:00:13;14.27;;;9.60;;
13866;SDS011;7003;46.982;15.248;2023-02-15T02:02:43;24.27;;;11.13;;
13866;SDS011;7003;46.982;15.248;2023-02-15T02:05:15;9.87;;;8.10;;
13866;SDS011;7003;46.982;15.248;2023-02-15T02:07:45;15.47;;;10.70;;
13866;SDS011;7003;46.982;15.248;2023-02-15T02:10:16;12.23;;;8.77;;
13866;SDS011;7003;46.982;15.248;2023-02-15T02:12:46;11.53;;;8.13;;
13866;SDS011;7003;46.982;15.248;2023-02-15T02:15:17;12.83;;;8.80;;
13866;SDS011;7003;46.982;15.248;2023-02-15T02:17:49;13.37;;;7.63;;
13866;SDS011;7003;46.982;15.248;2023-02-15T02:20:43;11.30;;;8.13;;
13866;SDS011;7003;46.982;15.248;2023-02-15T02:23:27;20.03;;;9.13;;
13866;SDS011;7003;46.982;15.248;2023-02-15T02:26:13;12.63;;;8.23;;
13866;SDS011;7003;46.982;15.248;2023-02-15T02:29:17;13.57;;;10.40;;
13866;SDS011;7003;46.982;15.248;2023-02-15T02:32:14;13.17;;;9.23;;
13866;SDS011;7003;46.982;15.248;2023-02-15T02:35:01;14.30;;;6.97;;
13866;SDS011;7003;46.982;15.248;2023-02-15T02:37:42;17.63;;;9.33;;
13866;SDS011;7003;46.982;15.248;2023-02-15T02:40:19;14.70;;;10.10;;
13866;SDS011;7003;46.982;15.248;2023-02-15T02:42:54;17.03;;;9.87;;
13866;SDS011;7003;46.982;15.248;2023-02-15T02:45:29;18.70;;;10.67;;
13866;SDS011;7003;46.982;15.248;2023-02-15T02:48:03;16.10;;;9.20;;
13866;SDS011;7003;46.982;15.248;2023-02-15T02:50:39;11.30;;;7.93;;
13866;SDS011;7003;46.982;15.248;2023-02-15T02:53:08;14.57;;;8.13;;
13866;SDS011;7003;46.982;15.248;2023-02-15T02:55:37;18.30;;;10.67;;
13866;SDS011;7003;46.982;15.248;2023-02-15T02:58:12;15.40;;;10.97;;
13866;SDS011;7003;46.982;15.248;2023-02-15T03:00:46;16.70;;;10.27;;
13866;SDS011;7003;46.982;15.248;2023-02-15T03:03:20;14.70;;;9.13;;
13866;SDS011;7003;46.982;15.248;2023-02-15T03:05:58;15.23;;;9.70;;
13866;SDS011;7003;46.982;15.248;2023-02-15T03:08:30;15.13;;;9.93;;
13866;SDS011;7003;46.982;15.248;2023-02-15T03:11:01;15.57;;;9.37;;
13866;SDS011;7003;46.982;15.248;2023-02-15T03:13:33;16.07;;;9.53;;
13866;SDS011;7003;46.982;15.248;2023-02-15T03:16:01;13.60;;;8.77;;
13866;SDS011;7003;46.982;15.248;2023-02-15T03:18:50;15.07;;;9.33;;
13866;SDS011;7003;46.982;15.248;2023-02-15T03:21:25;14.90;;;7.63;;
13866;SDS011;7003;46.982;15.248;2023-02-15T03:23:59;18.97;;;10.57;;
13866;SDS011;7003;46.982;15.248;2023-02-15T03:26:31;16.57;;;9.20;;
13866;SDS011;7003;46.982;15.248;2023-02-15T03:29:00;19.23;;;9.30;;
13866;SDS011;7003;46.982;15.248;2023-02-15T03:31:33;15.97;;;10.87;;
13866;SDS011;7003;46.982;15.248;2023-02-15T03:34:07;23.90;;;12.77;;
13866;SDS011;7003;46.982;15.248;2023-02-15T03:36:43;19.77;;;11.03;;
13866;SDS011;7003;46.982;15.248;2023-02-15T03:39:15;25.20;;;13.57;;
13866;SDS011;7003;46.982;15.248;2023-02-15T03:41:48;19.40;;;11.40;;
13866;SDS011;7003;46.982;15.248;2023-02-15T03:44:26;17.07;;;10.67;;
13866;SDS011;7003;46.982;15.248;2023-02-15T03:46:58;22.80;;;12.60;;
13866;SDS011;7003;46.982;15.248;2023-02-15T03:49:32;21.87;;;11.10;;
13866;SDS011;7003;46.982;15.248;2023-02-15T03:52:09;20.77;;;11.63;;
13866;SDS011;7003;46.982;15.248;2023-02-15T03:54:39;21.50;;;10.43;;
13866;SDS011;7003;46.982;15.248;2023-02-15T03:57:15;16.13;;;10.47;;
13866;SDS011;7003;46.982;15.248;2023-02-15T04:00:03;29.83;;;15.50;;
13866;SDS011;7003;46.982;15.248;2023-02-15T04:02:57;17.10;;;11.63;;
13866;SDS011;7003;46.982;15.248;2023-02-15T04:05:37;22.57;;;11.07;;
13866;SDS011;7003;46.982;15.248;2023-02-15T04:08:06;25.97;;;13.53;;
13866;SDS011;7003;46.982;15.248;2023-02-15T04:10:34;17.03;;;11.70;;
13866;SDS011;7003;46.982;15.248;2023-02-15T04:13:21;16.37;;;9.57;;
13866;SDS011;7003;46.982;15.248;2023-02-15T04:15:50;26.60;;;11.80;;
13866;SDS011;7003;46.982;15.248;2023-02-15T04:18:30;17.07;;;9.73;;
13866;SDS011;7003;46.982;15.248;2023-02-15T04:21:19;17.20;;;12.00;;
13866;SDS011;7003;46.982;15.248;2023-02-15T04:24:05;25.53;;;12.53;;
13866;SDS011;7003;46.982;15.248;2023-02-15T04:26:50;16.93;;;12.50;;
13866;SDS011;7003;46.982;15.248;2023-02-15T04:29:18;17.10;;;10.27;;
13866;SDS011;7003;46.982;15.248;2023-02-15T04:31:46;15.47;;;11.10;;
13866;SDS011;7003;46.982;15.248;2023-02-15T04:34:13;23.13;;;11.67;;
13866;SDS011;7003;46.982;15.248;2023-02-15T04:36:41;24.17;;;12.47;;
13866;SDS011;7003;46.982;15.248;2023-02-15T04:39:12;22.47;;;11.13;;
13866;SDS011;7003;46.982;15.248;2023-02-15T04:41:39;23.53;;;11.17;;
13866;SDS011;7003;46.982;15.248;2023-02-15T04:44:07;21.87;;;10.93;;
13866;SDS011;7003;46.982;15.248;2023-02-15T04:46:37;25.97;;;13.33;;
13866;SDS011;7003;46.982;15.248;2023-02-15T04:49:07;21.33;;;10.90;;
13866;SDS011;7003;46.982;15.248;2023-02-15T04:51:37;20.67;;;10.53;;
13866;SDS011;7003;46.982;15.248;2023-02-15T04:54:04;17.10;;;10.63;;
13866;SDS011;7003;46.982;15.248;2023-02-15T04:56:33;16.87;;;7.73;;
13866;SDS011;7003;46.982;15.248;2023-02-15T04:59:05;19.27;;;11.47;;
13866;SDS011;7003;46.982;15.248;2023-02-15T05:01:34;19.60;;;11.03;;
13866;SDS011;7003;46.982;15.248;2023-02-15T05:04:04;17.47;;;9.10;;
13866;SDS011;7003;46.982;15.248;2023-02-15T05:06:33;21.33;;;10.00;;
13866;SDS011;7003;46.982;15.248;2023-02-15T05:09:02;22.27;;;10.50;;
13866;SDS011;7003;46.982;15.248;2023-02-15T05:11:29;24.20;;;11.00;;
13866;SDS011;7003;46.982;15.248;2023-02-15T05:13:58;12.47;;;8.47;;
13866;SDS011;7003;46.982;15.248;2023-02-15T05:16:26;18.90;;;9.37;;
13866;SDS011;7003;46.982;15.248;2023-02-15T05:18:55;23.17;;;11.80;;
13866;SDS011;7003;46.982;15.248;2023-02-15T05:21:22;21.47;;;10.23;;
13866;SDS011;7003;46.982;15.248;2023-02-15T05:23:49;19.50;;;13.00;;
13866;SDS011;7003;46.982;15.248;2023-02-15T05:26:17;16.30;;;9.77;;
13866;SDS011;7003;46.982;15.248;2023-02-15T05:29:05;18.73;;;10.83;;
13866;SDS011;7003;46.982;15.248;2023-02-15T05:31:35;21.90;;;10.77;;
13866;SDS011;7003;46.982;15.248;2023-02-15T05:34:05;16.80;;;11.20;;
13866;SDS011;7003;46.982;15.248;2023-02-15T05:36:32;20.10;;;10.17;;
13866;SDS011;7003;46.982;15.248;2023-02-15T05:38:59;16.27;;;10.57;;
13866;SDS011;7003;46.982;15.248;2023-02-15T05:41:26;19.13;;;11.13;;
13866;SDS011;7003;46.982;15.248;2023-02-15T05:43:54;13.13;;;7.67;;
13866;SDS011;7003;46.982;15.248;2023-02-15T05:46:23;19.60;;;10.23;;
13866;SDS011;7003;46.982;15.248;2023-02-15T05:48:52;15.73;;;9.30;;
13866;SDS011;7003;46.982;15.248;2023-02-15T05:51:22;15.13;;;9.03;;
13866;SDS011;7003;46.982;15.248;2023-02-15T05:53:50;17.80;;;10.07;;
13866;SDS011;7003;46.982;15.248;2023-02-15T05:56:17;11.63;;;7.63;;
13866;SDS011;7003;46.982;15.248;2023-02-15T05:58:44;17.77;;;10.40;;
13866;SDS011;7003;46.982;15.248;2023-02-15T06:01:14;13.50;;;9.20;;
13866;SDS011;7003;46.982;15.248;2023-02-15T06:03:51;13.50;;;8.50;;
13866;SDS011;7003;46.982;15.248;2023-02-15T06:06:19;18.23;;;11.30;;
13866;SDS011;7003;46.982;15.248;2023-02-15T06:08:50;16.87;;;8.47;;
13866;SDS011;7003;46.982;15.248;2023-02-15T06:11:18;18.33;;;9.20;;
13866;SDS011;7003;46.982;15.248;2023-02-15T06:13:48;15.07;;;10.03;;
13866;SDS011;7003;46.982;15.248;2023-02-15T06:16:16;17.63;;;8.97;;
13866;SDS011;7003;46.982;15.248;2023-02-15T06:18:44;18.23;;;10.00;;
13866;SDS011;7003;46.982;15.248;2023-02-15T06:21:15;13.43;;;8.67;;
13866;SDS011;7003;46.982;15.248;2023-02-15T06:23:45;20.17;;;11.33;;
13866;SDS011;7003;46.982;15.248;2023-02-15T06:26:14;12.47;;;7.50;;
13866;SDS011;7003;46.982;15.248;2023-02-15T06:28:43;20.60;;;11.63;;
13866;SDS011;7003;46.982;15.248;2023-02-15T06:31:12;22.53;;;11.60;;
13866;SDS011;7003;46.982;15.248;2023-02-15T06:33:43;17.50;;;10.23;;
13866;SDS011;7003;46.982;15.248;2023-02-15T06:36:12;17.50;;;9.50;;
13866;SDS011;7003;46.982;15.248;2023-02-15T06:38:41;15.93;;;7.33;;
13866;SDS011;7003;46.982;15.248;2023-02-15T06:41:12;12.60;;;9.00;;
13866;SDS011;7003;46.982;15.248;2023-02-15T06:43:42;9.60;;;6.53;;
13866;SDS011;7003;46.982;15.248;2023-02-15T06:46:10;13.63;;;8.43;;
13866;SDS011;7003;46.982;15.248;2023-02-15T06:48:38;22.97;;;10.87;;
13866;SDS011;7003;46.982;15.248;2023-02-15T06:51:07;21.60;;;11.90;;
13866;SDS011;7003;46.982;15.248;2023-02-15T06:53:35;17.43;;;9.37;;
13866;SDS011;7003;46.982;15.248;2023-02-15T06:56:08;14.57;;;6.80;;
13866;SDS011;7003;46.982;15.248;2023-02-15T06:58:40;13.27;;;8.60;;
13866;SDS011;7003;46.982;15.248;2023-02-15T07:01:09;12.43;;;10.07;;
13866;SDS011;7003;46.982;15.248;2023-02-15T07:03:38;14.90;;;9.87;;
13866;SDS011;7003;46.982;15.248;2023-02-15T07:06:07;15.17;;;9.33;;
13866;SDS011;7003;46.982;15.248;2023-02-15T07:08:37;17.93;;;9.57;;
13866;SDS011;7003;46.982;15.248;2023-02-15T07:11:08;21.53;;;9.20;;
13866;SDS011;7003;46.982;15.248;2023-02-15T07:13:56;28.87;;;10.70;;
13866;SDS011;7003;46.982;15.248;2023-02-15T07:16:25;15.37;;;10.17;;
13866;SDS011;7003;46.982;15.248;2023-02-15T07:18:53;16.90;;;11.73;;
13866;SDS011;7003;46.982;15.248;2023-02-15T07:21:22;20.00;;;11.77;;
13866;SDS011;7003;46.982;15.248;2023-02-15T07:23:51;20.83;;;13.23;;
13866;SDS011;7003;46.982;15.248;2023-02-15T07:26:23;15.13;;;8.63;;
13866;SDS011;7003;46.982;15.248;2023-02-15T07:28:53;21.17;;;12.60;;
13866;SDS011;7003;46.982;15.248;2023-02-15T07:31:22;27.77;;;13.67;;
13866;SDS011;7003;46.982;15.248;2023-02-15T07:33:51;18.43;;;11.00;;
13866;SDS011;7003;46.982;15.248;2023-02-15T07:36:19;27.47;;;13.60;;
13866;SDS011;7003;46.982;15.248;2023-02-15T07:38:47;22.50;;;12.27;;
13866;SDS011;7003;46.982;15.248;2023-02-15T07:41:20;17.10;;;11.20;;
13866;SDS011;7003;46.982;15.248;2023-02-15T07:43:51;27.70;;;14.00;;
13866;SDS011;7003;46.982;15.248;2023-02-15T07:46:22;23.93;;;12.90;;
13866;SDS011;7003;46.982;15.248;2023-02-15T07:48:51;25.70;;;13.10;;
13866;SDS011;7003;46.982;15.248;2023-02-15T07:51:22;21.77;;;12.43;;
13866;SDS011;7003;46.982;15.248;2023-02-15T07:53:50;22.80;;;12.50;;
13866;SDS011;7003;46.982;15.248;2023-02-15T07:56:19;24.33;;;14.73;;
13866;SDS011;7003;46.982;15.248;2023-02-15T07:58:50;25.20;;;13.73;;
13866;SDS011;7003;46.982;15.248;2023-02-15T08:01:22;32.33;;;19.83;;
13866;SDS011;7003;46.982;15.248;2023-02-15T08:03:52;32.83;;;18.90;;
13866;SDS011;7003;46.982;15.248;2023-02-15T08:06:22;30.17;;;16.87;;
13866;SDS011;7003;46.982;15.248;2023-02-15T08:08:57;24.23;;;14.90;;
13866;SDS011;7003;46.982;15.248;2023-02-15T08:11:27;25.83;;;15.73;;
13866;SDS011;7003;46.982;15.248;2023-02-15T08:14:00;21.47;;;12.77;;
13866;SDS011;7003;46.982;15.248;2023-02-15T08:16:30;23.83;;;13.63;;
13866;SDS011;7003;46.982;15.248;2023-02-15T08:19:03;21.27;;;12.67;;
13866;SDS011;7003;46.982;15.248;2023-02-15T08:21:33;32.30;;;12.27;;
13866;SDS011;7003;46.982;15.248;2023-02-15T08:24:02;28.53;;;15.50;;
13866;SDS011;7003;46.982;15.248;2023-02-15T08:26:31;26.20;;;14.67;;
13866;SDS011;7003;46.982;15.248;2023-02-15T08:29:00;29.03;;;13.17;;
13866;SDS011;7003;46.982;15.248;2023-02-15T08:31:31;20.27;;;11.93;;
13866;SDS011;7003;46.982;15.248;2023-02-15T08:34:01;22.20;;;11.43;;
13866;SDS011;7003;46.982;15.248;2023-02-15T08:36:30;22.60;;;12.50;;
13866;SDS011;7003;46.982;15.248;2023-02-15T08:38:58;24.27;;;12.60;;
13866;SDS011;7003;46.982;15.248;2023-02-15T08:41:30;19.90;;;10.57;;
13866;SDS011;7003;46.982;15.248;2023-02-15T08:44:04;30.17;;;14.90;;
13866;SDS011;7003;46.982;15.248;2023-02-15T08:46:33;24.23;;;12.90;;
13866;SDS011;7003;46.982;15.248;2023-02-15T08:49:02;19.80;;;12.70;;
13866;SDS011;7003;46.982;15.248;2023-02-15T08:51:34;27.00;;;12.27;;
13866;SDS011;7003;46.982;15.248;2023-02-15T08:54:05;18.20;;;11.63;;
13866;SDS011;7003;46.982;15.248;2023-02-15T08:56:36;24.27;;;14.07;;
13866;SDS011;7003;46.982;15.248;2023-02-15T08:59:12;20.90;;;14.83;;
13866;SDS011;7003;46.982;15.248;2023-02-15T09:01:41;30.53;;;14.23;;
13866;SDS011;7003;46.982;15.248;2023-02-15T09:04:10;24.27;;;13.73;;
13866;SDS011;7003;46.982;15.248;2023-02-15T09:06:39;22.63;;;14.07;;
13866;SDS011;7003;46.982;15.248;2023-02-15T09:09:12;17.17;;;10.87;;
13866;SDS011;7003;46.982;15.248;2023-02-15T09:11:43;21.70;;;12.83;;
13866;SDS011;7003;46.982;15.248;2023-02-15T09:14:15;18.80;;;11.67;;
13866;SDS011;7003;46.982;15.248;2023-02-15T09:16:45;23.00;;;13.37;;
13866;SDS011;7003;46.982;15.248;2023-02-15T09:19:16;20.47;;;11.27;;
13866;SDS011;7003;46.982;15.248;2023-02-15T09:21:45;22.00;;;12.33;;
13866;SDS011;7003;46.982;15.248;2023-02-15T09:24:14;23.37;;;12.00;;
13866;SDS011;7003;46.982;15.248;2023-02-15T09:26:43;18.50;;;13.37;;
13866;SDS011;7003;46.982;15.248;2023-02-15T09:29:12;18.30;;;12.00;;
13866;SDS011;7003;46.982;15.248;2023-02-15T09:31:46;25.53;;;12.87;;
13866;SDS011;7003;46.982;15.248;2023-02-15T09:34:16;16.53;;;11.20;;
13866;SDS011;7003;46.982;15.248;2023-02-15T09:36:48;19.60;;;12.00;;
13866;SDS011;7003;46.982;15.248;2023-02-15T09:39:18;21.87;;;12.27;;
13866;SDS011;7003;46.982;15.248;2023-02-15T09:41:55;21.37;;;11.50;;
13866;SDS011;7003;46.982;15.248;2023-02-15T09:44:52;23.90;;;11.77;;
13866;SDS011;7003;46.982;15.248;2023-02-15T09:50:36;19.33;;;12.40;;
13866;SDS011;7003;46.982;15.248;2023-02-15T09:56:16;20.60;;;11.83;;
13866;SDS011;7003;46.982;15.248;2023-02-15T09:58:53;17.03;;;12.07;;
13866;SDS011;7003;46.982;15.248;2023-02-15T10:01:33;16.77;;;12.00;;
13866;SDS011;7003;46.982;15.248;2023-02-15T10:04:09;14.37;;;10.73;;
13866;SDS011;7003;46.982;15.248;2023-02-15T10:06:48;18.47;;;12.73;;
13866;SDS011;7003;46.982;15.248;2023-02-15T10:09:29;21.60;;;13.43;;
13866;SDS011;7003;46.982;15.248;2023-02-15T10:12:10;20.90;;;12.00;;
13866;SDS011;7003;46.982;15.248;2023-02-15T10:14:56;22.60;;;12.87;;
13866;SDS011;7003;46.982;15.248;2023-02-15T10:17:40;20.67;;;14.30;;
13866;SDS011;7003;46.982;15.248;2023-02-15T10:20:22;18.73;;;13.27;;
13866;SDS011;7003;46.982;15.248;2023-02-15T10:23:00;24.67;;;13.50;;
13866;SDS011;7003;46.982;15.248;2023-02-15T10:25:42;19.30;;;11.43;;
13866;SDS011;7003;46.982;15.248;2023-02-15T10:28:15;18.33;;;11.10;;
13866;SDS011;7003;46.982;15.248;2023-02-15T10:30:47;27.67;;;15.83;;
13866;SDS011;7003;46.982;15.248;2023-02-15T10:33:26;23.77;;;12.93;;
13866;SDS011;7003;46.982;15.248;2023-02-15T10:36:07;19.57;;;15.20;;
13866;SDS011;7003;46.982;15.248;2023-02-15T10:38:53;21.67;;;12.53;;
13866;SDS011;7003;46.982;15.248;2023-02-15T10:41:34;20.13;;;14.07;;
13866;SDS011;7003;46.982;15.248;2023-02-15T10:44:12;19.93;;;13.10;;
13866;SDS011;7003;46.982;15.248;2023-02-15T10:47:08;20.40;;;14.40;;
13866;SDS011;7003;46.982;15.248;2023-02-15T10:49:50;21.15;;;12.80;;
13866;SDS011;7003;46.982;15.248;2023-02-15T10:52:36;21.60;;;13.27;;
13866;SDS011;7003;46.982;15.248;2023-02-15T10:55:15;26.10;;;15.07;;
13866;SDS011;7003;46.982;15.248;2023-02-15T10:57:52;21.58;;;16.20;;
13866;SDS011;7003;46.982;15.248;2023-02-15T11:00:30;22.80;;;14.25;;
13866;SDS011;7003;46.982;15.248;2023-02-15T11:03:14;23.90;;;13.45;;
13866;SDS011;7003;46.982;15.248;2023-02-15T11:05:58;22.27;;;15.45;;
13866;SDS011;7003;46.982;15.248;2023-02-15T11:08:31;25.88;;;15.18;;
13866;SDS011;7003;46.982;15.248;2023-02-15T11:11:04;20.42;;;14.07;;
13866;SDS011;7003;46.982;15.248;2023-02-15T11:13:36;29.60;;;13.18;;
13866;SDS011;7003;46.982;15.248;2023-02-15T11:16:09;32.88;;;15.32;;
13866;SDS011;7003;46.982;15.248;2023-02-15T11:18:45;22.08;;;14.02;;
13866;SDS011;7003;46.982;15.248;2023-02-15T11:21:19;22.23;;;13.18;;
13866;SDS011;7003;46.982;15.248;2023-02-15T11:23:51;22.60;;;16.13;;
13866;SDS011;7003;46.982;15.248;2023-02-15T11:26:21;26.70;;;14.82;;
13866;SDS011;7003;46.982;15.248;2023-02-15T11:28:59;23.38;;;13.77;;
13866;SDS011;7003;46.982;15.248;2023-02-15T11:31:38;22.10;;;14.43;;
13866;SDS011;7003;46.982;15.248;2023-02-15T11:34:14;20.80;;;14.68;;
13866;SDS011;7003;46.982;15.248;2023-02-15T11:36:48;26.15;;;15.10;;
13866;SDS011;7003;46.982;15.248;2023-02-15T11:39:19;24.88;;;14.57;;
13866;SDS011;7003;46.982;15.248;2023-02-15T11:41:49;24.02;;;14.60;;
13866;SDS011;7003;46.982;15.248;2023-02-15T11:44:23;28.58;;;17.45;;
13866;SDS011;7003;46.982;15.248;2023-02-15T11:46:54;28.52;;;16.35;;
13866;SDS011;7003;46.982;15.248;2023-02-15T11:49:25;31.30;;;17.40;;
13866;SDS011;7003;46.982;15.248;2023-02-15T11:52:02;28.90;;;19.90;;
13866;SDS011;7003;46.982;15.248;2023-02-15T11:54:33;49.35;;;30.15;;
13866;SDS011;7003;46.982;15.248;2023-02-15T11:57:03;41.90;;;26.25;;
13866;SDS011;7003;46.982;15.248;2023-02-15T11:59:43;33.08;;;20.95;;
13866;SDS011;7003;46.982;15.248;2023-02-15T12:02:16;27.73;;;17.25;;
13866;SDS011;7003;46.982;15.248;2023-02-15T12:04:47;51.28;;;30.63;;
13866;SDS011;7003;46.982;15.248;2023-02-15T12:07:24;23.02;;;17.05;;
13866;SDS011;7003;46.982;15.248;2023-02-15T12:09:56;48.03;;;26.58;;
13866;SDS011;7003;46.982;15.248;2023-02-15T12:12:35;30.60;;;16.85;;
13866;SDS011;7003;46.982;15.248;2023-02-15T12:15:04;20.92;;;15.02;;
13866;SDS011;7003;46.982;15.248;2023-02-15T12:17:34;21.27;;;14.25;;
13866;SDS011;7003;46.982;15.248;2023-02-15T12:20:20;22.40;;;14.52;;
13866;SDS011;7003;46.982;15.248;2023-02-15T12:22:53;22.00;;;14.55;;
13866;SDS011;7003;46.982;15.248;2023-02-15T12:25:29;24.30;;;13.73;;
13866;SDS011;7003;46.982;15.248;2023-02-15T12:28:15;23.20;;;13.20;;
13866;SDS011;7003;46.982;15.248;2023-02-15T12:30:52;20.00;;;13.20;;
13866;SDS011;7003;46.982;15.248;2023-02-15T12:33:25;26.50;;;16.67;;
13866;SDS011;7003;46.982;15.248;2023-02-15T12:36:00;23.60;;;15.27;;
13866;SDS011;7003;46.982;15.248;2023-02-15T12:38:36;21.38;;;13.00;;
13866;SDS011;7003;46.982;15.248;2023-02-15T12:41:05;20.90;;;13.20;;
13866;SDS011;7003;46.982;15.248;2023-02-15T12:44:01;23.00;;;14.63;;
13866;SDS011;7003;46.982;15.248;2023-02-15T12:46:32;24.98;;;14.63;;
13866;SDS011;7003;46.982;15.248;2023-02-15T12:49:10;17.02;;;13.77;;
13866;SDS011;7003;46.982;15.248;2023-02-15T12:51:46;18.33;;;12.32;;
13866;SDS011;7003;46.982;15.248;2023-02-15T12:54:36;27.98;;;14.65;;
13866;SDS011;7003;46.982;15.248;2023-02-15T12:57:20;20.10;;;13.20;;
13866;SDS011;7003;46.982;15.248;2023-02-15T12:59:53;20.83;;;14.50;;
13866;SDS011;7003;46.982;15.248;2023-02-15T13:02:34;21.27;;;14.48;;
13866;SDS011;7003;46.982;15.248;2023-02-15T13:05:14;25.73;;;14.63;;
13866;SDS011;7003;46.982;15.248;2023-02-15T13:07:53;22.45;;;14.25;;
13866;SDS011;7003;46.982;15.248;2023-02-15T13:10:25;28.90;;;15.70;;
13866;SDS011;7003;46.982;15.248;2023-02-15T13:12:58;22.35;;;14.57;;
13866;SDS011;7003;46.982;15.248;2023-02-15T13:15:30;24.33;;;13.07;;
13866;SDS011;7003;46.982;15.248;2023-02-15T13:18:02;21.33;;;14.23;;
13866;SDS011;7003;46.982;15.248;2023-02-15T13:20:34;24.05;;;14.07;;
13866;SDS011;7003;46.982;15.248;2023-02-15T13:23:22;23.00;;;16.42;;
13866;SDS011;7003;46.982;15.248;2023-02-15T13:25:56;25.83;;;14.88;;
13866;SDS011;7003;46.982;15.248;2023-02-15T13:28:27;21.10;;;14.52;;
13866;SDS011;7003;46.982;15.248;2023-02-15T13:31:04;20.58;;;15.40;;
13866;SDS011;7003;46.982;15.248;2023-02-15T13:33:43;21.35;;;13.45;;
13866;SDS011;7003;46.982;15.248;2023-02-15T13:36:15;26.23;;;15.52;;
13866;SDS011;7003;46.982;15.248;2023-02-15T13:38:58;25.50;;;13.02;;
13866;SDS011;7003;46.982;15.248;2023-02-15T13:41:40;26.50;;;15.45;;
13866;SDS011;7003;46.982;15.248;2023-02-15T13:44:22;19.58;;;13.77;;
13866;SDS011;7003;46.982;15.248;2023-02-15T13:47:05;23.00;;;15.10;;
13866;SDS011;7003;46.982;15.248;2023-02-15T13:49:43;21.00;;;13.45;;
13866;SDS011;7003;46.982;15.248;2023-02-15T13:52:21;24.90;;;14.95;;
13866;SDS011;7003;46.982;15.248;2023-02-15T13:55:08;24.05;;;14.50;;
13866;SDS011;7003;46.982;15.248;2023-02-15T13:57:53;25.95;;;15.68;;
13866;SDS011;7003;46.982;15.248;2023-02-15T14:00:35;23.63;;;15.27;;
13866;SDS011;7003;46.982;15.248;2023-02-15T14:06:14;21.73;;;14.82;;
13866;SDS011;7003;46.982;15.248;2023-02-15T14:09:11;22.05;;;14.65;;
13866;SDS011;7003;46.982;15.248;2023-02-15T14:11:51;28.98;;;15.10;;
13866;SDS011;7003;46.982;15.248;2023-02-15T14:14:36;23.85;;;14.32;;
13866;SDS011;7003;46.982;15.248;2023-02-15T14:17:17;24.60;;;15.38;;
13866;SDS011;7003;46.982;15.248;2023-02-15T14:19:52;22.50;;;14.93;;
13866;SDS011;7003;46.982;15.248;2023-02-15T14:22:26;23.52;;;14.65;;
13866;SDS011;7003;46.982;15.248;2023-02-15T14:25:12;23.05;;;15.27;;
13866;SDS011;7003;46.982;15.248;2023-02-15T14:27:49;22.83;;;15.52;;
13866;SDS011;7003;46.982;15.248;2023-02-15T14:30:28;22.23;;;14.68;;
13866;SDS011;7003;46.982;15.248;2023-02-15T14:33:02;26.58;;;16.98;;
13866;SDS011;7003;46.982;15.248;2023-02-15T14:35:34;24.33;;;16.33;;
13866;SDS011;7003;46.982;15.248;2023-02-15T14:38:11;22.65;;;15.07;;
13866;SDS011;7003;46.982;15.248;2023-02-15T14:40:48;23.30;;;14.80;;
13866;SDS011;7003;46.982;15.248;2023-02-15T14:43:45;23.27;;;14.70;;
13866;SDS011;7003;46.982;15.248;2023-02-15T14:46:21;25.23;;;14.85;;
13866;SDS011;7003;46.982;15.248;2023-02-15T14:48:58;24.83;;;16.08;;
13866;SDS011;7003;46.982;15.248;2023-02-15T14:57:30;25.05;;;15.77;;
13866;SDS011;7003;46.982;15.248;2023-02-15T15:00:00;29.13;;;15.75;;
13866;SDS011;7003;46.982;15.248;2023-02-15T15:02:43;43.70;;;19.35;;
13866;SDS011;7003;46.982;15.248;2023-02-15T15:05:16;22.90;;;15.68;;
13866;SDS011;7003;46.982;15.248;2023-02-15T15:07:49;30.75;;;18.88;;
13866;SDS011;7003;46.982;15.248;2023-02-15T15:10:33;30.48;;;17.70;;
13866;SDS011;7003;46.982;15.248;2023-02-15T15:19:02;31.63;;;19.70;;
13866;SDS011;7003;46.982;15.248;2023-02-15T15:27:37;52.40;;;25.85;;
13866;SDS011;7003;46.982;15.248;2023-02-15T15:39:33;41.42;;;23.73;;